sensor_id;sensor_type;location;lat;lon;timestamp;P1;durP1;ratioP1;P2;durP2;ratioP2
75209;SDS011;63796;53.136;14.882;2023-03-01T00:01:21;122.10;;;42.00;;
75209;SDS011;63796;53.136;14.882;2023-03-01T00:03:49;54.50;;;20.20;;
75209;SDS011;63796;53.136;14.882;2023-03-01T00:06:17;36.80;;;12.70;;
75209;SDS011;63796;53.136;14.882;2023-03-01T00:08:44;34.60;;;12.60;;
75209;SDS011;63796;53.136;14.882;2023-03-01T00:11:26;32.70;;;11.30;;
75209;SDS011;63796;53.136;14.882;2023-03-01T00:13:56;26.20;;;8.20;;
75209;SDS011;63796;53.136;14.882;2023-03-01T00:16:27;24.20;;;8.00;;
75209;SDS011;63796;53.136;14.882;2023-03-01T00:18:56;22.70;;;7.70;;
75209;SDS011;63796;53.136;14.882;2023-03-01T00:21:25;24.10;;;8.70;;
75209;SDS011;63796;53.136;14.882;2023-03-01T00:23:53;30.20;;;11.60;;
75209;SDS011;63796;53.136;14.882;2023-03-01T00:26:22;34.90;;;14.40;;
75209;SDS011;63796;53.136;14.882;2023-03-01T00:28:50;32.70;;;12.00;;
75209;SDS011;63796;53.136;14.882;2023-03-01T00:31:24;23.10;;;9.60;;
75209;SDS011;63796;53.136;14.882;2023-03-01T00:34:00;13.70;;;6.70;;
75209;SDS011;63796;53.136;14.882;2023-03-01T00:36:31;15.00;;;5.90;;
75209;SDS011;63796;53.136;14.882;2023-03-01T00:38:59;14.00;;;6.00;;
75209;SDS011;63796;53.136;14.882;2023-03-01T00:41:26;15.10;;;6.00;;
75209;SDS011;63796;53.136;14.882;2023-03-01T00:43:54;14.30;;;5.80;;
75209;SDS011;63796;53.136;14.882;2023-03-01T00:46:24;16.50;;;6.00;;
75209;SDS011;63796;53.136;14.882;2023-03-01T00:48:52;11.00;;;5.00;;
75209;SDS011;63796;53.136;14.882;2023-03-01T00:51:22;13.70;;;5.20;;
75209;SDS011;63796;53.136;14.882;2023-03-01T00:53:52;16.70;;;6.20;;
75209;SDS011;63796;53.136;14.882;2023-03-01T00:56:20;20.00;;;8.10;;
75209;SDS011;63796;53.136;14.882;2023-03-01T00:58:47;17.70;;;7.50;;
75209;SDS011;63796;53.136;14.882;2023-03-01T01:01:23;25.40;;;10.30;;
75209;SDS011;63796;53.136;14.882;2023-03-01T01:04:02;28.70;;;12.60;;
75209;SDS011;63796;53.136;14.882;2023-03-01T01:06:36;34.00;;;17.50;;
75209;SDS011;63796;53.136;14.882;2023-03-01T01:09:06;31.90;;;13.20;;
75209;SDS011;63796;53.136;14.882;2023-03-01T01:11:34;47.70;;;17.20;;
75209;SDS011;63796;53.136;14.882;2023-03-01T01:14:03;63.10;;;22.40;;
75209;SDS011;63796;53.136;14.882;2023-03-01T01:16:31;51.70;;;19.80;;
75209;SDS011;63796;53.136;14.882;2023-03-01T01:18:58;35.20;;;13.40;;
75209;SDS011;63796;53.136;14.882;2023-03-01T01:21:26;49.60;;;16.30;;
75209;SDS011;63796;53.136;14.882;2023-03-01T01:23:54;44.20;;;15.10;;
75209;SDS011;63796;53.136;14.882;2023-03-01T01:26:28;38.30;;;13.20;;
75209;SDS011;63796;53.136;14.882;2023-03-01T01:28:57;43.10;;;16.60;;
75209;SDS011;63796;53.136;14.882;2023-03-01T01:31:25;41.30;;;14.80;;
75209;SDS011;63796;53.136;14.882;2023-03-01T01:33:54;44.80;;;15.80;;
75209;SDS011;63796;53.136;14.882;2023-03-01T01:36:22;34.00;;;12.40;;
75209;SDS011;63796;53.136;14.882;2023-03-01T01:38:50;26.80;;;9.70;;
75209;SDS011;63796;53.136;14.882;2023-03-01T01:41:19;33.80;;;10.90;;
75209;SDS011;63796;53.136;14.882;2023-03-01T01:49:41;24.10;;;7.60;;
75209;SDS011;63796;53.136;14.882;2023-03-01T01:52:16;36.50;;;10.10;;
75209;SDS011;63796;53.136;14.882;2023-03-01T01:57:19;48.80;;;15.10;;
75209;SDS011;63796;53.136;14.882;2023-03-01T01:59:51;54.20;;;15.80;;
75209;SDS011;63796;53.136;14.882;2023-03-01T02:02:19;44.10;;;12.10;;
75209;SDS011;63796;53.136;14.882;2023-03-01T02:04:48;46.30;;;14.40;;
75209;SDS011;63796;53.136;14.882;2023-03-01T02:07:20;30.40;;;9.00;;
75209;SDS011;63796;53.136;14.882;2023-03-01T02:09:51;20.70;;;6.50;;
75209;SDS011;63796;53.136;14.882;2023-03-01T02:12:23;15.60;;;5.40;;
75209;SDS011;63796;53.136;14.882;2023-03-01T02:14:51;15.40;;;6.60;;
75209;SDS011;63796;53.136;14.882;2023-03-01T02:17:19;18.80;;;6.80;;
75209;SDS011;63796;53.136;14.882;2023-03-01T02:20:15;27.30;;;8.60;;
75209;SDS011;63796;53.136;14.882;2023-03-01T02:22:46;37.10;;;12.10;;
75209;SDS011;63796;53.136;14.882;2023-03-01T02:27:53;81.00;;;26.60;;
75209;SDS011;63796;53.136;14.882;2023-03-01T02:30:25;81.00;;;24.70;;
75209;SDS011;63796;53.136;14.882;2023-03-01T02:32:53;73.00;;;23.00;;
75209;SDS011;63796;53.136;14.882;2023-03-01T02:35:35;34.80;;;9.50;;
75209;SDS011;63796;53.136;14.882;2023-03-01T02:38:07;51.50;;;15.60;;
75209;SDS011;63796;53.136;14.882;2023-03-01T02:40:37;95.00;;;29.70;;
75209;SDS011;63796;53.136;14.882;2023-03-01T02:43:08;105.70;;;35.60;;
75209;SDS011;63796;53.136;14.882;2023-03-01T02:45:37;175.30;;;44.10;;
75209;SDS011;63796;53.136;14.882;2023-03-01T02:48:04;51.90;;;16.90;;
75209;SDS011;63796;53.136;14.882;2023-03-01T02:50:51;121.90;;;29.30;;
75209;SDS011;63796;53.136;14.882;2023-03-01T02:53:46;119.00;;;29.00;;
75209;SDS011;63796;53.136;14.882;2023-03-01T02:56:16;90.60;;;23.30;;
75209;SDS011;63796;53.136;14.882;2023-03-01T02:58:48;144.30;;;30.80;;
75209;SDS011;63796;53.136;14.882;2023-03-01T03:01:19;61.00;;;17.30;;
75209;SDS011;63796;53.136;14.882;2023-03-01T03:03:47;55.60;;;15.60;;
75209;SDS011;63796;53.136;14.882;2023-03-01T03:06:14;16.20;;;6.30;;
75209;SDS011;63796;53.136;14.882;2023-03-01T03:08:42;17.80;;;6.80;;
75209;SDS011;63796;53.136;14.882;2023-03-01T03:11:11;21.00;;;7.10;;
75209;SDS011;63796;53.136;14.882;2023-03-01T03:13:38;296.00;;;48.70;;
75209;SDS011;63796;53.136;14.882;2023-03-01T03:16:15;69.30;;;16.50;;
75209;SDS011;63796;53.136;14.882;2023-03-01T03:18:43;20.90;;;7.00;;
75209;SDS011;63796;53.136;14.882;2023-03-01T03:21:11;456.00;;;80.10;;
75209;SDS011;63796;53.136;14.882;2023-03-01T03:23:39;470.80;;;81.60;;
75209;SDS011;63796;53.136;14.882;2023-03-01T03:26:06;48.40;;;11.80;;
75209;SDS011;63796;53.136;14.882;2023-03-01T03:28:34;20.70;;;6.50;;
75209;SDS011;63796;53.136;14.882;2023-03-01T03:31:02;47.80;;;10.20;;
75209;SDS011;63796;53.136;14.882;2023-03-01T03:33:32;61.50;;;13.70;;
75209;SDS011;63796;53.136;14.882;2023-03-01T03:36:00;207.50;;;41.20;;
75209;SDS011;63796;53.136;14.882;2023-03-01T03:38:27;205.00;;;37.10;;
75209;SDS011;63796;53.136;14.882;2023-03-01T03:41:06;257.00;;;48.40;;
75209;SDS011;63796;53.136;14.882;2023-03-01T03:43:36;88.60;;;21.50;;
75209;SDS011;63796;53.136;14.882;2023-03-01T03:46:04;19.80;;;7.20;;
75209;SDS011;63796;53.136;14.882;2023-03-01T03:48:42;16.10;;;5.80;;
75209;SDS011;63796;53.136;14.882;2023-03-01T03:51:12;17.20;;;5.70;;
75209;SDS011;63796;53.136;14.882;2023-03-01T03:53:41;27.30;;;7.90;;
75209;SDS011;63796;53.136;14.882;2023-03-01T03:56:08;47.30;;;13.80;;
75209;SDS011;63796;53.136;14.882;2023-03-01T03:58:36;33.10;;;10.20;;
75209;SDS011;63796;53.136;14.882;2023-03-01T04:01:04;40.80;;;11.50;;
75209;SDS011;63796;53.136;14.882;2023-03-01T04:03:32;33.60;;;10.80;;
75209;SDS011;63796;53.136;14.882;2023-03-01T04:06:02;72.20;;;19.40;;
75209;SDS011;63796;53.136;14.882;2023-03-01T04:08:31;128.10;;;34.60;;
75209;SDS011;63796;53.136;14.882;2023-03-01T04:11:00;31.50;;;8.90;;
75209;SDS011;63796;53.136;14.882;2023-03-01T04:13:48;13.40;;;5.40;;
75209;SDS011;63796;53.136;14.882;2023-03-01T04:16:16;10.40;;;3.70;;
75209;SDS011;63796;53.136;14.882;2023-03-01T04:18:45;11.00;;;4.50;;
75209;SDS011;63796;53.136;14.882;2023-03-01T04:21:12;8.70;;;3.80;;
75209;SDS011;63796;53.136;14.882;2023-03-01T04:23:40;9.00;;;4.00;;
75209;SDS011;63796;53.136;14.882;2023-03-01T04:26:09;13.20;;;5.10;;
75209;SDS011;63796;53.136;14.882;2023-03-01T04:28:38;12.70;;;4.50;;
75209;SDS011;63796;53.136;14.882;2023-03-01T04:31:09;12.60;;;4.50;;
75209;SDS011;63796;53.136;14.882;2023-03-01T04:33:42;11.40;;;5.00;;
75209;SDS011;63796;53.136;14.882;2023-03-01T04:36:11;18.50;;;6.90;;
75209;SDS011;63796;53.136;14.882;2023-03-01T04:38:39;17.20;;;7.40;;
75209;SDS011;63796;53.136;14.882;2023-03-01T04:41:09;18.50;;;7.70;;
75209;SDS011;63796;53.136;14.882;2023-03-01T04:43:38;19.60;;;8.20;;
75209;SDS011;63796;53.136;14.882;2023-03-01T04:46:13;34.80;;;13.80;;
75209;SDS011;63796;53.136;14.882;2023-03-01T04:48:42;30.30;;;12.80;;
75209;SDS011;63796;53.136;14.882;2023-03-01T04:51:10;16.80;;;6.10;;
75209;SDS011;63796;53.136;14.882;2023-03-01T04:53:40;18.30;;;8.90;;
75209;SDS011;63796;53.136;14.882;2023-03-01T04:56:08;24.50;;;10.60;;
75209;SDS011;63796;53.136;14.882;2023-03-01T04:58:36;16.60;;;8.10;;
75209;SDS011;63796;53.136;14.882;2023-03-01T05:01:16;14.10;;;6.40;;
75209;SDS011;63796;53.136;14.882;2023-03-01T05:03:46;46.10;;;22.90;;
75209;SDS011;63796;53.136;14.882;2023-03-01T05:06:14;64.00;;;31.20;;
75209;SDS011;63796;53.136;14.882;2023-03-01T05:08:42;76.50;;;39.70;;
75209;SDS011;63796;53.136;14.882;2023-03-01T05:11:10;36.50;;;21.20;;
75209;SDS011;63796;53.136;14.882;2023-03-01T05:13:39;28.50;;;14.50;;
75209;SDS011;63796;53.136;14.882;2023-03-01T05:16:07;21.90;;;10.90;;
75209;SDS011;63796;53.136;14.882;2023-03-01T05:18:40;17.80;;;7.60;;
75209;SDS011;63796;53.136;14.882;2023-03-01T05:21:10;37.70;;;18.90;;
75209;SDS011;63796;53.136;14.882;2023-03-01T05:23:38;44.60;;;23.60;;
75209;SDS011;63796;53.136;14.882;2023-03-01T05:26:06;43.20;;;20.40;;
75209;SDS011;63796;53.136;14.882;2023-03-01T05:28:39;34.10;;;15.20;;
75209;SDS011;63796;53.136;14.882;2023-03-01T05:31:07;34.50;;;15.00;;
75209;SDS011;63796;53.136;14.882;2023-03-01T05:33:37;23.70;;;12.30;;
75209;SDS011;63796;53.136;14.882;2023-03-01T05:36:06;18.30;;;8.20;;
75209;SDS011;63796;53.136;14.882;2023-03-01T05:38:34;31.60;;;10.90;;
75209;SDS011;63796;53.136;14.882;2023-03-01T05:41:01;75.30;;;23.60;;
75209;SDS011;63796;53.136;14.882;2023-03-01T05:43:31;48.60;;;15.60;;
75209;SDS011;63796;53.136;14.882;2023-03-01T05:46:01;79.60;;;24.80;;
75209;SDS011;63796;53.136;14.882;2023-03-01T05:48:28;60.70;;;19.10;;
75209;SDS011;63796;53.136;14.882;2023-03-01T05:50:59;45.90;;;15.20;;
75209;SDS011;63796;53.136;14.882;2023-03-01T05:53:27;59.90;;;19.40;;
75209;SDS011;63796;53.136;14.882;2023-03-01T05:55:54;39.40;;;14.10;;
75209;SDS011;63796;53.136;14.882;2023-03-01T05:58:22;16.20;;;6.60;;
75209;SDS011;63796;53.136;14.882;2023-03-01T06:00:49;14.40;;;5.60;;
75209;SDS011;63796;53.136;14.882;2023-03-01T06:03:19;13.40;;;5.00;;
75209;SDS011;63796;53.136;14.882;2023-03-01T06:05:47;47.60;;;12.60;;
75209;SDS011;63796;53.136;14.882;2023-03-01T06:08:14;134.70;;;36.40;;
75209;SDS011;63796;53.136;14.882;2023-03-01T06:10:41;91.20;;;26.30;;
75209;SDS011;63796;53.136;14.882;2023-03-01T06:13:09;47.30;;;14.70;;
75209;SDS011;63796;53.136;14.882;2023-03-01T06:15:36;45.20;;;17.90;;
75209;SDS011;63796;53.136;14.882;2023-03-01T06:18:04;48.30;;;18.10;;
75209;SDS011;63796;53.136;14.882;2023-03-01T06:20:31;35.30;;;14.60;;
75209;SDS011;63796;53.136;14.882;2023-03-01T06:22:59;40.50;;;14.90;;
75209;SDS011;63796;53.136;14.882;2023-03-01T06:25:27;30.60;;;11.10;;
75209;SDS011;63796;53.136;14.882;2023-03-01T06:27:54;33.00;;;13.50;;
75209;SDS011;63796;53.136;14.882;2023-03-01T06:30:23;50.80;;;17.90;;
75209;SDS011;63796;53.136;14.882;2023-03-01T06:32:51;105.50;;;32.60;;
75209;SDS011;63796;53.136;14.882;2023-03-01T06:35:19;122.30;;;33.80;;
75209;SDS011;63796;53.136;14.882;2023-03-01T06:37:47;71.70;;;27.00;;
75209;SDS011;63796;53.136;14.882;2023-03-01T06:40:17;48.70;;;18.80;;
75209;SDS011;63796;53.136;14.882;2023-03-01T06:42:48;30.60;;;11.90;;
75209;SDS011;63796;53.136;14.882;2023-03-01T06:45:20;31.00;;;15.00;;
75209;SDS011;63796;53.136;14.882;2023-03-01T06:47:48;50.20;;;26.00;;
75209;SDS011;63796;53.136;14.882;2023-03-01T06:50:16;22.30;;;13.20;;
75209;SDS011;63796;53.136;14.882;2023-03-01T06:52:44;15.20;;;5.70;;
75209;SDS011;63796;53.136;14.882;2023-03-01T06:55:12;115.40;;;32.20;;
75209;SDS011;63796;53.136;14.882;2023-03-01T06:57:40;99.40;;;32.30;;
75209;SDS011;63796;53.136;14.882;2023-03-01T07:00:08;82.50;;;27.50;;
75209;SDS011;63796;53.136;14.882;2023-03-01T07:02:36;73.50;;;24.50;;
75209;SDS011;63796;53.136;14.882;2023-03-01T07:05:03;40.20;;;15.50;;
75209;SDS011;63796;53.136;14.882;2023-03-01T07:07:31;17.80;;;8.10;;
75209;SDS011;63796;53.136;14.882;2023-03-01T07:09:58;45.60;;;17.70;;
75209;SDS011;63796;53.136;14.882;2023-03-01T07:12:25;27.00;;;11.20;;
75209;SDS011;63796;53.136;14.882;2023-03-01T07:14:53;46.90;;;18.40;;
75209;SDS011;63796;53.136;14.882;2023-03-01T07:17:20;51.90;;;21.10;;
75209;SDS011;63796;53.136;14.882;2023-03-01T07:19:47;56.30;;;21.10;;
75209;SDS011;63796;53.136;14.882;2023-03-01T07:22:14;34.40;;;14.20;;
75209;SDS011;63796;53.136;14.882;2023-03-01T07:24:42;27.90;;;11.90;;
75209;SDS011;63796;53.136;14.882;2023-03-01T07:27:10;27.80;;;12.60;;
75209;SDS011;63796;53.136;14.882;2023-03-01T07:29:37;49.90;;;18.80;;
75209;SDS011;63796;53.136;14.882;2023-03-01T07:32:05;39.80;;;16.10;;
75209;SDS011;63796;53.136;14.882;2023-03-01T07:34:33;38.40;;;15.10;;
75209;SDS011;63796;53.136;14.882;2023-03-01T07:37:00;39.20;;;15.20;;
75209;SDS011;63796;53.136;14.882;2023-03-01T07:39:27;31.40;;;13.30;;
75209;SDS011;63796;53.136;14.882;2023-03-01T07:41:55;27.50;;;9.50;;
75209;SDS011;63796;53.136;14.882;2023-03-01T07:44:22;26.40;;;10.50;;
75209;SDS011;63796;53.136;14.882;2023-03-01T07:46:49;14.40;;;6.40;;
75209;SDS011;63796;53.136;14.882;2023-03-01T07:49:18;16.90;;;8.40;;
75209;SDS011;63796;53.136;14.882;2023-03-01T07:51:46;18.30;;;9.80;;
75209;SDS011;63796;53.136;14.882;2023-03-01T07:54:13;31.80;;;16.20;;
75209;SDS011;63796;53.136;14.882;2023-03-01T07:56:40;22.00;;;10.60;;
75209;SDS011;63796;53.136;14.882;2023-03-01T07:59:07;21.00;;;10.90;;
75209;SDS011;63796;53.136;14.882;2023-03-01T08:01:35;14.00;;;6.60;;
75209;SDS011;63796;53.136;14.882;2023-03-01T08:04:02;17.70;;;8.20;;
75209;SDS011;63796;53.136;14.882;2023-03-01T08:06:29;17.10;;;8.50;;
75209;SDS011;63796;53.136;14.882;2023-03-01T08:08:58;21.00;;;10.60;;
75209;SDS011;63796;53.136;14.882;2023-03-01T08:11:25;19.90;;;8.50;;
75209;SDS011;63796;53.136;14.882;2023-03-01T08:13:55;16.80;;;7.30;;
75209;SDS011;63796;53.136;14.882;2023-03-01T08:16:23;12.10;;;6.70;;
75209;SDS011;63796;53.136;14.882;2023-03-01T08:18:51;13.80;;;7.60;;
75209;SDS011;63796;53.136;14.882;2023-03-01T08:21:18;13.20;;;6.30;;
75209;SDS011;63796;53.136;14.882;2023-03-01T08:23:45;16.00;;;8.90;;
75209;SDS011;63796;53.136;14.882;2023-03-01T08:26:16;12.40;;;6.30;;
75209;SDS011;63796;53.136;14.882;2023-03-01T08:28:44;15.00;;;6.20;;
75209;SDS011;63796;53.136;14.882;2023-03-01T08:31:17;11.00;;;4.60;;
75209;SDS011;63796;53.136;14.882;2023-03-01T08:33:46;17.90;;;7.90;;
75209;SDS011;63796;53.136;14.882;2023-03-01T08:36:17;25.50;;;9.30;;
75209;SDS011;63796;53.136;14.882;2023-03-01T08:38:45;24.20;;;8.70;;
75209;SDS011;63796;53.136;14.882;2023-03-01T08:41:12;18.90;;;6.00;;
75209;SDS011;63796;53.136;14.882;2023-03-01T08:43:40;8.90;;;3.40;;
75209;SDS011;63796;53.136;14.882;2023-03-01T08:46:07;14.90;;;3.90;;
75209;SDS011;63796;53.136;14.882;2023-03-01T08:48:35;16.00;;;6.20;;
75209;SDS011;63796;53.136;14.882;2023-03-01T08:51:14;26.60;;;8.50;;
75209;SDS011;63796;53.136;14.882;2023-03-01T08:53:44;29.30;;;10.50;;
75209;SDS011;63796;53.136;14.882;2023-03-01T08:56:12;51.70;;;18.00;;
75209;SDS011;63796;53.136;14.882;2023-03-01T08:58:39;20.10;;;7.90;;
75209;SDS011;63796;53.136;14.882;2023-03-01T09:01:08;28.00;;;10.00;;
75209;SDS011;63796;53.136;14.882;2023-03-01T09:03:36;17.00;;;6.50;;
75209;SDS011;63796;53.136;14.882;2023-03-01T09:06:05;28.70;;;9.90;;
75209;SDS011;63796;53.136;14.882;2023-03-01T09:08:41;12.10;;;4.10;;
75209;SDS011;63796;53.136;14.882;2023-03-01T09:11:12;7.80;;;3.50;;
75209;SDS011;63796;53.136;14.882;2023-03-01T09:13:40;18.20;;;6.50;;
75209;SDS011;63796;53.136;14.882;2023-03-01T09:16:12;12.00;;;4.90;;
75209;SDS011;63796;53.136;14.882;2023-03-01T09:18:40;19.80;;;6.90;;
75209;SDS011;63796;53.136;14.882;2023-03-01T09:21:13;13.60;;;5.30;;
75209;SDS011;63796;53.136;14.882;2023-03-01T09:23:44;9.40;;;4.20;;
75209;SDS011;63796;53.136;14.882;2023-03-01T09:26:14;19.40;;;7.10;;
75209;SDS011;63796;53.136;14.882;2023-03-01T09:28:43;12.90;;;5.40;;
75209;SDS011;63796;53.136;14.882;2023-03-01T09:31:14;10.10;;;6.20;;
75209;SDS011;63796;53.136;14.882;2023-03-01T09:33:42;9.60;;;4.30;;
75209;SDS011;63796;53.136;14.882;2023-03-01T09:36:17;7.00;;;3.70;;
75209;SDS011;63796;53.136;14.882;2023-03-01T09:38:45;6.30;;;3.60;;
75209;SDS011;63796;53.136;14.882;2023-03-01T09:43:57;11.90;;;6.50;;
75209;SDS011;63796;53.136;14.882;2023-03-01T09:46:27;6.70;;;4.00;;
75209;SDS011;63796;53.136;14.882;2023-03-01T09:49:02;12.20;;;5.70;;
75209;SDS011;63796;53.136;14.882;2023-03-01T09:51:34;11.30;;;5.90;;
75209;SDS011;63796;53.136;14.882;2023-03-01T09:54:04;14.50;;;8.20;;
75209;SDS011;63796;53.136;14.882;2023-03-01T10:02:00;16.70;;;8.50;;
75209;SDS011;63796;53.136;14.882;2023-03-01T10:04:58;10.50;;;5.00;;
75209;SDS011;63796;53.136;14.882;2023-03-01T10:07:49;8.40;;;4.70;;
75209;SDS011;63796;53.136;14.882;2023-03-01T10:10:36;11.80;;;5.60;;
75209;SDS011;63796;53.136;14.882;2023-03-01T10:13:19;11.90;;;5.70;;
75209;SDS011;63796;53.136;14.882;2023-03-01T10:15:51;6.00;;;3.70;;
75209;SDS011;63796;53.136;14.882;2023-03-01T10:18:25;9.40;;;5.60;;
75209;SDS011;63796;53.136;14.882;2023-03-01T10:20:59;8.60;;;5.00;;
75209;SDS011;63796;53.136;14.882;2023-03-01T10:23:29;7.50;;;4.00;;
75209;SDS011;63796;53.136;14.882;2023-03-01T10:29:07;9.90;;;5.80;;
75209;SDS011;63796;53.136;14.882;2023-03-01T10:31:39;6.70;;;3.80;;
75209;SDS011;63796;53.136;14.882;2023-03-01T10:34:10;5.80;;;3.90;;
75209;SDS011;63796;53.136;14.882;2023-03-01T10:36:39;5.70;;;4.40;;
75209;SDS011;63796;53.136;14.882;2023-03-01T10:39:19;6.90;;;4.60;;
75209;SDS011;63796;53.136;14.882;2023-03-01T10:42:05;6.10;;;4.40;;
75209;SDS011;63796;53.136;14.882;2023-03-01T10:44:44;6.50;;;4.30;;
75209;SDS011;63796;53.136;14.882;2023-03-01T10:47:32;7.30;;;4.60;;
75209;SDS011;63796;53.136;14.882;2023-03-01T10:50:02;5.70;;;4.50;;
75209;SDS011;63796;53.136;14.882;2023-03-01T10:52:35;6.90;;;4.70;;
75209;SDS011;63796;53.136;14.882;2023-03-01T10:55:26;5.40;;;4.90;;
75209;SDS011;63796;53.136;14.882;2023-03-01T10:58:21;8.10;;;4.40;;
75209;SDS011;63796;53.136;14.882;2023-03-01T11:00:50;5.40;;;4.50;;
75209;SDS011;63796;53.136;14.882;2023-03-01T11:03:23;8.70;;;7.90;;
75209;SDS011;63796;53.136;14.882;2023-03-01T11:05:59;5.40;;;4.90;;
75209;SDS011;63796;53.136;14.882;2023-03-01T11:08:39;6.30;;;5.40;;
75209;SDS011;63796;53.136;14.882;2023-03-01T11:11:29;7.70;;;6.90;;
75209;SDS011;63796;53.136;14.882;2023-03-01T11:14:16;9.80;;;8.50;;
75209;SDS011;63796;53.136;14.882;2023-03-01T11:17:04;9.60;;;7.90;;
75209;SDS011;63796;53.136;14.882;2023-03-01T11:19:32;6.60;;;5.90;;
75209;SDS011;63796;53.136;14.882;2023-03-01T11:22:32;7.70;;;5.20;;
75209;SDS011;63796;53.136;14.882;2023-03-01T11:25:02;7.10;;;4.40;;
75209;SDS011;63796;53.136;14.882;2023-03-01T11:27:40;6.40;;;5.60;;
75209;SDS011;63796;53.136;14.882;2023-03-01T11:30:28;7.10;;;5.40;;
75209;SDS011;63796;53.136;14.882;2023-03-01T11:35:37;7.70;;;5.90;;
75209;SDS011;63796;53.136;14.882;2023-03-01T11:38:24;5.80;;;4.90;;
75209;SDS011;63796;53.136;14.882;2023-03-01T11:44:03;9.70;;;5.10;;
75209;SDS011;63796;53.136;14.882;2023-03-01T11:57:58;61.90;;;26.10;;
75209;SDS011;63796;53.136;14.882;2023-03-01T12:03:28;12.60;;;6.60;;
75209;SDS011;63796;53.136;14.882;2023-03-01T12:08:43;7.20;;;4.90;;
75209;SDS011;63796;53.136;14.882;2023-03-01T12:16:39;6.20;;;4.80;;
75209;SDS011;63796;53.136;14.882;2023-03-01T12:33:17;5.90;;;3.90;;
75209;SDS011;63796;53.136;14.882;2023-03-01T12:36:36;6.30;;;4.30;;
75209;SDS011;63796;53.136;14.882;2023-03-01T12:42:08;9.50;;;6.50;;
75209;SDS011;63796;53.136;14.882;2023-03-01T12:50:41;13.20;;;6.60;;
75209;SDS011;63796;53.136;14.882;2023-03-01T12:53:32;24.40;;;13.80;;
75209;SDS011;63796;53.136;14.882;2023-03-01T12:56:15;7.10;;;4.10;;
75209;SDS011;63796;53.136;14.882;2023-03-01T13:04:02;7.50;;;4.00;;
75209;SDS011;63796;53.136;14.882;2023-03-01T13:06:41;6.70;;;3.80;;
75209;SDS011;63796;53.136;14.882;2023-03-01T13:09:32;9.00;;;3.90;;
75209;SDS011;63796;53.136;14.882;2023-03-01T13:12:02;6.90;;;4.00;;
75209;SDS011;63796;53.136;14.882;2023-03-01T13:14:36;8.60;;;4.20;;
75209;SDS011;63796;53.136;14.882;2023-03-01T13:17:04;7.40;;;3.90;;
75209;SDS011;63796;53.136;14.882;2023-03-01T13:19:31;5.70;;;4.20;;
75209;SDS011;63796;53.136;14.882;2023-03-01T13:22:27;7.90;;;4.30;;
75209;SDS011;63796;53.136;14.882;2023-03-01T13:25:16;7.90;;;3.70;;
75209;SDS011;63796;53.136;14.882;2023-03-01T13:27:45;5.10;;;3.80;;
75209;SDS011;63796;53.136;14.882;2023-03-01T13:35:56;13.50;;;8.30;;
75209;SDS011;63796;53.136;14.882;2023-03-01T13:39:02;8.60;;;5.90;;
75209;SDS011;63796;53.136;14.882;2023-03-01T13:49:53;6.00;;;4.40;;
75209;SDS011;63796;53.136;14.882;2023-03-01T13:52:39;6.30;;;3.50;;
75209;SDS011;63796;53.136;14.882;2023-03-01T13:57:48;4.30;;;3.90;;
75209;SDS011;63796;53.136;14.882;2023-03-01T14:00:38;4.20;;;3.40;;
75209;SDS011;63796;53.136;14.882;2023-03-01T14:05:37;31.40;;;17.30;;
75209;SDS011;63796;53.136;14.882;2023-03-01T14:08:18;19.70;;;11.30;;
75209;SDS011;63796;53.136;14.882;2023-03-01T14:14:31;7.90;;;4.30;;
75209;SDS011;63796;53.136;14.882;2023-03-01T14:19:31;5.00;;;3.50;;
75209;SDS011;63796;53.136;14.882;2023-03-01T14:24:54;3.80;;;3.20;;
75209;SDS011;63796;53.136;14.882;2023-03-01T14:27:26;6.80;;;3.90;;
75209;SDS011;63796;53.136;14.882;2023-03-01T14:29:59;17.50;;;10.60;;
75209;SDS011;63796;53.136;14.882;2023-03-01T14:32:29;15.20;;;8.30;;
75209;SDS011;63796;53.136;14.882;2023-03-01T14:34:58;8.60;;;5.00;;
75209;SDS011;63796;53.136;14.882;2023-03-01T14:37:33;5.80;;;3.50;;
75209;SDS011;63796;53.136;14.882;2023-03-01T14:40:03;7.90;;;3.90;;
75209;SDS011;63796;53.136;14.882;2023-03-01T14:42:35;8.40;;;3.90;;
75209;SDS011;63796;53.136;14.882;2023-03-01T14:45:03;4.80;;;2.80;;
75209;SDS011;63796;53.136;14.882;2023-03-01T14:47:35;5.80;;;3.00;;
75209;SDS011;63796;53.136;14.882;2023-03-01T14:50:05;5.80;;;3.20;;
75209;SDS011;63796;53.136;14.882;2023-03-01T14:52:39;7.70;;;5.00;;
75209;SDS011;63796;53.136;14.882;2023-03-01T14:55:35;8.40;;;4.30;;
75209;SDS011;63796;53.136;14.882;2023-03-01T14:58:15;5.60;;;3.50;;
75209;SDS011;63796;53.136;14.882;2023-03-01T15:00:51;10.40;;;6.10;;
75209;SDS011;63796;53.136;14.882;2023-03-01T15:03:40;17.80;;;12.70;;
75209;SDS011;63796;53.136;14.882;2023-03-01T15:06:11;8.80;;;5.80;;
75209;SDS011;63796;53.136;14.882;2023-03-01T15:08:46;8.20;;;4.00;;
75209;SDS011;63796;53.136;14.882;2023-03-01T15:11:24;8.60;;;3.90;;
75209;SDS011;63796;53.136;14.882;2023-03-01T15:13:54;6.60;;;3.40;;
75209;SDS011;63796;53.136;14.882;2023-03-01T15:16:24;6.20;;;3.30;;
75209;SDS011;63796;53.136;14.882;2023-03-01T15:19:05;4.50;;;2.80;;
75209;SDS011;63796;53.136;14.882;2023-03-01T15:21:37;7.20;;;3.90;;
75209;SDS011;63796;53.136;14.882;2023-03-01T15:24:20;8.40;;;4.60;;
75209;SDS011;63796;53.136;14.882;2023-03-01T15:26:58;7.70;;;4.30;;
75209;SDS011;63796;53.136;14.882;2023-03-01T15:29:30;6.80;;;4.20;;
75209;SDS011;63796;53.136;14.882;2023-03-01T15:32:04;7.00;;;3.80;;
75209;SDS011;63796;53.136;14.882;2023-03-01T15:34:36;8.60;;;4.30;;
75209;SDS011;63796;53.136;14.882;2023-03-01T15:37:32;18.40;;;9.50;;
75209;SDS011;63796;53.136;14.882;2023-03-01T15:39:56;20.40;;;10.50;;
75209;SDS011;63796;53.136;14.882;2023-03-01T15:47:50;8.10;;;5.00;;
75209;SDS011;63796;53.136;14.882;2023-03-01T15:50:46;7.70;;;4.20;;
75209;SDS011;63796;53.136;14.882;2023-03-01T15:53:21;11.50;;;6.20;;
75209;SDS011;63796;53.136;14.882;2023-03-01T15:55:49;64.30;;;28.30;;
75209;SDS011;63796;53.136;14.882;2023-03-01T15:58:20;84.10;;;34.30;;
75209;SDS011;63796;53.136;14.882;2023-03-01T16:00:48;70.70;;;28.60;;
75209;SDS011;63796;53.136;14.882;2023-03-01T16:03:27;94.10;;;33.40;;
75209;SDS011;63796;53.136;14.882;2023-03-01T16:05:55;252.50;;;74.60;;
75209;SDS011;63796;53.136;14.882;2023-03-01T16:08:23;319.80;;;86.70;;
75209;SDS011;63796;53.136;14.882;2023-03-01T16:10:51;347.10;;;87.90;;
75209;SDS011;63796;53.136;14.882;2023-03-01T16:13:21;395.60;;;105.90;;
75209;SDS011;63796;53.136;14.882;2023-03-01T16:15:49;427.90;;;117.50;;
75209;SDS011;63796;53.136;14.882;2023-03-01T16:18:16;372.50;;;107.30;;
75209;SDS011;63796;53.136;14.882;2023-03-01T16:20:44;482.90;;;139.70;;
75209;SDS011;63796;53.136;14.882;2023-03-01T16:23:17;566.30;;;170.60;;
75209;SDS011;63796;53.136;14.882;2023-03-01T16:25:45;643.80;;;213.40;;
75209;SDS011;63796;53.136;14.882;2023-03-01T16:28:12;451.20;;;146.00;;
75209;SDS011;63796;53.136;14.882;2023-03-01T16:30:46;406.50;;;131.70;;
75209;SDS011;63796;53.136;14.882;2023-03-01T16:33:16;537.10;;;178.70;;
75209;SDS011;63796;53.136;14.882;2023-03-01T16:36:06;438.50;;;145.90;;
75209;SDS011;63796;53.136;14.882;2023-03-01T16:38:46;373.10;;;120.10;;